»·PEaware :: WAT169 KLAS-KDEN

WAT169 :: KLAS-KDEN

FLIGHT INFORMATION

Flight Status: Arrived
Operator:
Walker Air Transport
More flights by this operator :: More flights under this callsign
Pilot: Marty P. (27464)
Aircraft: BOEING 737-800
(B738)
More flights by this aircraft type
Origin: KLAS McCarran Intl
United States
Destination: KDEN Denver Intl
United States
More flights between these airports :: More routes between these airports
Route: GIDGT1 TUKRR BUMMP SSKII2
File this flight plan on PilotEdge
Remarks:
Altitude:
(Current/Filed)
39,000ft
Speed:
(Current/Filed)
480kts
Departed: 12-Mar-21 06:14 PM
Arrived: 12-Mar-21 07:37 PM
Distance/Time
Traveled:
544nm/1:23
Distance/Time
To Go:
Arrived

Flight Plot

Page will automatically refresh every two minutes.

Flight plan parsing failed; only flown route is shown


Map Options




Map Legend


Flown Route
Filed Route
Departure Airport
Arrival Airport
Navaid (VOR, NDB)
Fix

Horizontal Profiles

Position Reports

Time Latitude Longitude Heading Altitude Ground
Speed
12-Mar-21 17:51 36.080317 -115.147297 66 2099ft 0kts
12-Mar-21 17:52 36.080317 -115.147297 66 2099ft 0kts
12-Mar-21 17:53 36.080317 -115.147297 66 2099ft 0kts
12-Mar-21 17:54 36.080317 -115.147297 66 2099ft 0kts
12-Mar-21 17:55 36.080317 -115.147297 66 2099ft 0kts
12-Mar-21 17:56 36.080317 -115.147297 66 2099ft 0kts
12-Mar-21 17:57 36.080317 -115.147297 66 2099ft 0kts
12-Mar-21 17:58 36.080317 -115.147297 66 2099ft 0kts
12-Mar-21 17:59 36.080317 -115.147297 66 2099ft 0kts
12-Mar-21 18:00 36.080317 -115.147297 66 2099ft 0kts
12-Mar-21 18:01 36.080317 -115.147297 66 2099ft 0kts
12-Mar-21 18:02 36.080276 -115.147411 65 2099ft 2kts
12-Mar-21 18:03 36.080287 -115.148077 145 2102ft 2kts
12-Mar-21 18:04 36.080383 -115.148136 155 2102ft 0kts
12-Mar-21 18:05 36.080383 -115.148136 155 2102ft 0kts
12-Mar-21 18:06 36.080024 -115.147925 154 2102ft 2kts
12-Mar-21 18:07 36.078678 -115.147106 137 2101ft 8kts
12-Mar-21 18:08 36.078262 -115.142516 91 2087ft 14kts
12-Mar-21 18:09 36.078268 -115.137619 89 2074ft 13kts
12-Mar-21 18:10 36.078277 -115.130806 90 2054ft 20kts
12-Mar-21 18:11 36.078275 -115.124364 90 2042ft 16kts
12-Mar-21 18:12 36.077494 -115.121552 135 2039ft 4kts
12-Mar-21 18:13 36.076437 -115.123221 269 2041ft 56kts
12-Mar-21 18:14 36.076912 -115.177093 269 3804ft 193kts
12-Mar-21 18:15 36.079837 -115.255314 290 7111ft 248kts
12-Mar-21 18:16 36.136725 -115.298580 357 10855ft 266kts
12-Mar-21 18:17 36.186422 -115.221826 71 12442ft 354kts
12-Mar-21 18:18 36.196139 -115.098495 88 15639ft 369kts
12-Mar-21 18:19 36.196302 -114.970184 89 18341ft 383kts
12-Mar-21 18:20 36.196268 -114.836217 89 19146ft 392kts
12-Mar-21 18:21 36.196138 -114.699903 89 21496ft 401kts
12-Mar-21 18:22 36.195653 -114.560860 88 23469ft 413kts
12-Mar-21 18:23 36.195216 -114.416032 89 25085ft 428kts
12-Mar-21 18:24 36.195563 -114.267529 87 26789ft 435kts
12-Mar-21 18:25 36.210544 -114.114899 83 27712ft 459kts
12-Mar-21 18:26 36.231910 -113.958977 81 29235ft 464kts
12-Mar-21 18:27 36.258015 -113.802355 82 30679ft 466kts
12-Mar-21 18:28 36.279368 -113.643598 86 32052ft 465kts
12-Mar-21 18:29 36.292645 -113.484274 89 33301ft 465kts
12-Mar-21 18:30 36.304554 -113.324413 90 34481ft 466kts
12-Mar-21 18:32 36.335552 -113.168631 71 35648ft 475kts
12-Mar-21 18:33 36.386395 -113.017198 70 36705ft 476kts
12-Mar-21 18:34 36.438779 -112.866256 69 37666ft 476kts
12-Mar-21 18:35 36.491602 -112.714793 69 38514ft 476kts
12-Mar-21 18:36 36.543751 -112.564918 69 39121ft 480kts
12-Mar-21 18:37 36.597519 -112.409673 69 39113ft 498kts
12-Mar-21 18:38 36.653044 -112.248786 69 39118ft 512kts
12-Mar-21 18:39 36.709182 -112.085275 69 39118ft 515kts
12-Mar-21 18:40 36.765110 -111.921359 70 39094ft 517kts
12-Mar-21 18:41 36.821479 -111.755165 70 39072ft 518kts
12-Mar-21 18:42 36.882961 -111.595477 62 39073ft 520kts
12-Mar-21 18:43 36.956503 -111.439492 61 39072ft 521kts
12-Mar-21 18:44 37.030488 -111.283520 62 39073ft 521kts
12-Mar-21 18:45 37.104126 -111.127943 62 39072ft 522kts
12-Mar-21 18:46 37.177980 -110.971126 62 39073ft 523kts
12-Mar-21 18:47 37.251767 -110.813691 62 39073ft 524kts
12-Mar-21 18:48 37.324795 -110.657123 62 39073ft 525kts
12-Mar-21 18:49 37.398308 -110.498750 62 39091ft 525kts
12-Mar-21 18:50 37.471762 -110.339741 63 39104ft 526kts
12-Mar-21 18:51 37.545050 -110.180563 63 39105ft 526kts
12-Mar-21 18:51 37.605857 -110.047743 63 39109ft 527kts
12-Mar-21 18:53 37.691265 -109.860162 63 39109ft 529kts
12-Mar-21 18:54 37.764046 -109.699536 63 39109ft 529kts
12-Mar-21 18:55 37.836782 -109.538186 63 39109ft 530kts
12-Mar-21 18:56 37.909637 -109.375720 63 39109ft 533kts
12-Mar-21 18:56 37.970394 -109.239821 64 39109ft 535kts
12-Mar-21 18:57 38.043371 -109.075717 64 39108ft 532kts
12-Mar-21 18:59 38.126299 -108.883105 69 39055ft 534kts
12-Mar-21 19:00 38.190135 -108.712688 67 39054ft 539kts
12-Mar-21 19:01 38.256449 -108.541464 67 39052ft 542kts
12-Mar-21 19:01 38.312163 -108.398174 67 39036ft 544kts
12-Mar-21 19:02 38.379142 -108.225724 68 39029ft 544kts
12-Mar-21 19:03 38.445809 -108.053081 68 39049ft 544kts
12-Mar-21 19:04 38.511475 -107.878493 69 39064ft 546kts
12-Mar-21 19:05 38.576384 -107.705456 68 39063ft 544kts
12-Mar-21 19:06 38.641725 -107.531177 68 39063ft 543kts
12-Mar-21 19:07 38.707251 -107.356743 67 39063ft 545kts
12-Mar-21 19:08 38.772897 -107.183125 68 39064ft 544kts
12-Mar-21 19:09 38.838438 -107.008882 68 39067ft 544kts
12-Mar-21 19:10 38.903512 -106.834930 68 39129ft 534kts
12-Mar-21 19:11 38.968364 -106.660372 68 39118ft 548kts
12-Mar-21 19:12 39.033113 -106.483241 69 37227ft 545kts
12-Mar-21 19:13 39.097690 -106.305208 69 34534ft 553kts
12-Mar-21 19:14 39.162683 -106.126465 70 31528ft 553kts
12-Mar-21 19:15 39.227885 -105.945120 69 28522ft 562kts
12-Mar-21 19:16 39.291830 -105.767367 69 25491ft 524kts
12-Mar-21 19:17 39.350295 -105.604826 68 21943ft 484kts
12-Mar-21 19:18 39.405396 -105.453328 68 17942ft 450kts
12-Mar-21 19:19 39.466859 -105.329641 58 16990ft 363kts
12-Mar-21 19:20 39.524210 -105.223701 58 16981ft 362kts
12-Mar-21 19:21 39.581577 -105.117365 58 16185ft 355kts
12-Mar-21 19:22 39.637095 -105.014232 58 14972ft 339kts
12-Mar-21 19:23 39.689790 -104.916015 58 14976ft 334kts
12-Mar-21 19:24 39.760111 -104.843959 9 13987ft 329kts
12-Mar-21 19:25 39.849323 -104.839809 358 12432ft 316kts
12-Mar-21 19:26 39.933564 -104.839144 359 10490ft 296kts
12-Mar-21 19:27 40.012948 -104.843419 358 8520ft 278kts
12-Mar-21 19:28 40.085282 -104.844975 2 7812ft 238kts
12-Mar-21 19:29 40.131594 -104.805688 85 7859ft 226kts
12-Mar-21 19:30 40.132507 -104.724596 121 7882ft 221kts
12-Mar-21 19:31 40.080068 -104.685346 172 7957ft 226kts
12-Mar-21 19:32 40.016624 -104.685456 177 7892ft 231kts
12-Mar-21 19:33 39.956780 -104.686168 177 6642ft 186kts
12-Mar-21 19:34 39.912024 -104.686636 177 5776ft 155kts
12-Mar-21 19:35 39.876391 -104.687054 179 5444ft 81kts
12-Mar-21 19:36 39.864571 -104.687137 156 5444ft 9kts
12-Mar-21 19:37 39.864256 -104.683380 90 5444ft 14kts
12-Mar-21 19:38 39.864781 -104.678502 90 5444ft 9kts
12-Mar-21 19:39 39.863669 -104.677843 180 5444ft 2kts
12-Mar-21 19:40 39.863575 -104.677844 180 5444ft 0kts
12-Mar-21 19:41 39.863575 -104.677844 180 5444ft 0kts
12-Mar-21 19:42 39.863575 -104.677844 180 5444ft 0kts

Navigation Log

Ident Type
Flight plan parsing failed, navigation log unavailable